Mo Valley, Iowa
Current Conditions -  °F | °C
As of 11:55 AM on Saturday 20 Dec 2014 (Local Time) from KBTA Reporting Station
Haze Haze  
Wind Chill: 33°   Ceiling: 400
Heat Index: 33°   Visibility: 2.5mi
Dew Point: 32°   Wind: 3mph
Humidity: 95%   Direction: 140°SE
Pressure: 30.09"   Gusts: NA
Location:  41.5746°N, 95.9326°W
Report Text: KBTA 201755Z AUTO 14003KT 2 1/2SM BR OVC004 01/00 A3009 RMK AO2 T00051002 10005 20000
Loading
Personal Weather Stations






























Interactive Weather Map New forecast layout! Learn more

10-Day Weather Forecast

Advertisements
Track Severe Weather on mobile